Time;durP1;ratioP1;P1;durP2;ratioP2;P2;SDS_P1;SDS_P2;PMS_P1;PMS_P2;Temp;Humidity;BMP_temperature;BMP_pressure;BME280_temperature;BME280_humidity;BME280_pressure;Samples;Min_cycle;Max_cycle;Signal;HPM_P1;HPM_P2
2022/10/29 00:00:40;;;;;;;17.85;3.67;;;12.10;99.90;;;;;;5052682;28;20059;-76
2022/10/29 00:03:06;;;;;;;21.25;4.47;;;12.00;99.90;;;;;;5052505;28;20049;-76
2022/10/29 00:05:32;;;;;;;20.50;5.20;;;12.10;99.90;;;;;;5052603;28;20040;-76
2022/10/29 00:07:59;;;;;;;32.42;5.65;;;12.30;99.90;;;;;;5052962;28;20041;-76
2022/10/29 00:10:25;;;;;;;23.58;6.50;;;12.10;99.90;;;;;;5053026;28;20049;-75
2022/10/29 00:12:50;;;;;;;20.40;6.35;;;12.10;99.90;;;;;;5052401;28;20033;-75
2022/10/29 00:15:16;;;;;;;24.25;6.53;;;12.20;99.90;;;;;;5034675;28;20041;-76
2022/10/29 00:17:42;;;;;;;25.67;7.07;;;12.20;99.90;;;;;;5052235;28;20045;-76
2022/10/29 00:20:08;;;;;;;28.70;7.20;;;12.20;99.90;;;;;;5052412;28;20446;-75
2022/10/29 00:22:33;;;;;;;36.33;8.02;;;12.20;99.90;;;;;;5052515;28;20124;-76
2022/10/29 00:24:59;;;;;;;37.30;7.90;;;12.20;99.90;;;;;;5052390;28;20143;-76
2022/10/29 00:27:25;;;;;;;22.15;7.22;;;12.20;99.90;;;;;;5018492;28;20044;-75
2022/10/29 00:29:51;;;;;;;26.40;7.38;;;12.20;99.90;;;;;;5052339;28;20126;-75
2022/10/29 00:32:16;;;;;;;29.58;8.55;;;12.50;99.90;;;;;;5052094;28;20049;-75
2022/10/29 00:34:42;;;;;;;31.88;8.00;;;12.30;99.90;;;;;;5051779;28;20169;-75
2022/10/29 00:37:08;;;;;;;23.45;8.38;;;12.30;99.90;;;;;;5052381;28;20044;-74
2022/10/29 00:39:33;;;;;;;24.45;8.38;;;12.60;99.90;;;;;;5052005;28;20064;-76
2022/10/29 00:42:00;;;;;;;20.60;8.15;;;12.40;99.90;;;;;;5051769;28;20559;-75
2022/10/29 00:44:35;;;;;;;25.65;7.55;;;12.60;99.90;;;;;;5034101;28;20140;-74
2022/10/29 00:47:03;;;;;;;22.83;7.70;;;12.30;99.90;;;;;;5051559;28;20561;-75
2022/10/29 00:49:34;;;;;;;25.52;7.63;;;12.30;99.90;;;;;;5051840;28;20110;-75
2022/10/29 00:52:01;;;;;;;21.38;8.18;;;12.50;99.90;;;;;;5051430;28;20136;-76
2022/10/29 00:54:29;;;;;;;19.65;6.72;;;12.50;99.90;;;;;;5051431;28;20053;-74
2022/10/29 00:57:02;;;;;;;20.70;7.80;;;12.90;99.90;;;;;;5051637;28;20102;-75
2022/10/29 00:59:27;;;;;;;37.35;8.13;;;12.40;99.90;;;;;;5033712;28;20189;-75
2022/10/29 01:01:54;;;;;;;19.17;7.38;;;12.40;99.90;;;;;;5051523;28;20130;-75
2022/10/29 01:04:21;;;;;;;19.17;8.75;;;12.40;99.90;;;;;;5033604;28;20090;-75
2022/10/29 01:06:47;;;;;;;18.73;7.40;;;12.40;99.90;;;;;;5051592;28;20045;-75
2022/10/29 01:09:13;;;;;;;20.88;7.53;;;12.40;99.90;;;;;;5033176;28;20084;-75
2022/10/29 01:12:16;;;;;;;58.55;6.50;;;12.30;99.90;;;;;;5051492;28;20044;-75
2022/10/29 01:14:59;;;;;;;12.13;5.35;;;12.30;99.90;;;;;;5050999;28;20081;-75
2022/10/29 01:18:03;;;;;;;15.38;5.72;;;12.20;99.90;;;;;;5051387;28;20081;-75
2022/10/29 01:21:07;;;;;;;20.92;6.15;;;12.20;99.90;;;;;;5050962;28;20041;-75
2022/10/29 01:23:39;;;;;;;21.30;6.40;;;12.20;99.90;;;;;;4953645;28;20086;-75
2022/10/29 01:26:26;;;;;;;22.80;6.35;;;12.20;99.90;;;;;;4953473;28;20482;-75
2022/10/29 01:28:54;;;;;;;20.50;6.68;;;12.20;99.90;;;;;;4969361;28;20510;-76
2022/10/29 01:31:44;;;;;;;28.50;8.15;;;12.20;99.90;;;;;;4969392;28;20608;-75
2022/10/29 01:34:17;;;;;;;28.17;7.78;;;12.20;99.90;;;;;;4953344;28;20089;-75
2022/10/29 01:36:54;;;;;;;25.98;8.15;;;12.20;99.90;;;;;;4969592;28;20054;-75
2022/10/29 01:39:40;;;;;;;23.50;7.25;;;12.30;99.90;;;;;;4969196;28;20126;-75
2022/10/29 01:42:27;;;;;;;21.15;7.85;;;12.20;99.90;;;;;;4969559;28;20135;-75
2022/10/29 01:45:04;;;;;;;20.38;7.00;;;12.20;99.90;;;;;;4969483;28;20058;-75
2022/10/29 01:47:38;;;;;;;18.40;7.18;;;12.20;99.90;;;;;;4969281;28;20191;-75
2022/10/29 01:50:09;;;;;;;21.02;7.53;;;12.20;99.90;;;;;;4969171;28;20552;-75
2022/10/29 01:52:36;;;;;;;24.33;8.27;;;12.30;99.90;;;;;;4969058;28;20054;-75
2022/10/29 01:55:02;;;;;;;18.95;7.78;;;12.40;99.90;;;;;;4968681;28;20572;-75
2022/10/29 01:57:31;;;;;;;22.02;8.15;;;12.30;99.90;;;;;;5008212;28;20044;-75
2022/10/29 02:00:02;;;;;;;47.38;9.02;;;12.30;99.90;;;;;;5050241;28;20049;-75
2022/10/29 02:02:41;;;;;;;23.20;7.63;;;12.30;99.90;;;;;;5031923;28;20048;-75
2022/10/29 02:05:31;;;;;;;40.17;8.30;;;12.30;99.90;;;;;;5050271;28;20434;-75
2022/10/29 02:08:19;;;;;;;30.40;7.30;;;12.30;99.90;;;;;;5032425;28;20380;-74
2022/10/29 02:10:58;;;;;;;15.27;7.40;;;12.30;99.90;;;;;;5032448;28;20061;-74
2022/10/29 02:13:30;;;;;;;28.50;8.13;;;12.30;99.90;;;;;;5031966;28;20049;-75
2022/10/29 02:15:57;;;;;;;13.13;6.90;;;12.30;99.90;;;;;;5050408;28;20080;-75
2022/10/29 02:18:23;;;;;;;17.85;6.82;;;12.30;99.90;;;;;;5032727;28;20544;-74
2022/10/29 02:20:48;;;;;;;15.88;6.57;;;12.30;99.90;;;;;;5032145;28;20131;-75
2022/10/29 02:23:15;;;;;;;14.48;5.57;;;12.30;99.90;;;;;;5049905;28;20045;-73
2022/10/29 02:25:41;;;;;;;12.13;6.68;;;12.30;99.90;;;;;;5049839;28;20045;-74
2022/10/29 02:28:07;;;;;;;8.23;5.30;;;12.30;99.90;;;;;;5049798;28;20071;-74
2022/10/29 02:30:32;;;;;;;20.05;5.55;;;12.30;99.90;;;;;;5050197;28;20412;-75
2022/10/29 02:32:58;;;;;;;17.60;5.72;;;12.30;99.90;;;;;;5050082;28;20472;-73
2022/10/29 02:35:23;;;;;;;28.90;6.72;;;12.30;99.90;;;;;;5049074;28;20036;-74
2022/10/29 02:37:49;;;;;;;24.05;5.72;;;12.30;99.90;;;;;;5031539;28;20060;-72
2022/10/29 02:40:15;;;;;;;21.38;5.68;;;12.30;99.90;;;;;;5026422;28;20591;-74
2022/10/29 02:42:40;;;;;;;24.38;6.15;;;12.30;99.90;;;;;;5029778;28;20124;-74
2022/10/29 02:45:07;;;;;;;13.77;5.20;;;12.30;99.90;;;;;;5041764;28;20033;-75
2022/10/29 02:47:32;;;;;;;13.10;5.78;;;12.30;99.90;;;;;;5049867;28;20044;-75
2022/10/29 02:49:58;;;;;;;43.20;7.05;;;12.50;99.90;;;;;;5049525;28;20049;-75
2022/10/29 02:52:23;;;;;;;8.75;5.85;;;12.30;99.90;;;;;;5031587;28;20037;-75
2022/10/29 02:54:50;;;;;;;17.55;6.15;;;12.30;99.90;;;;;;5049172;28;20064;-76
2022/10/29 02:57:16;;;;;;;40.08;6.50;;;12.30;99.90;;;;;;5049648;28;20667;-75
2022/10/29 02:59:42;;;;;;;18.40;5.80;;;12.30;99.90;;;;;;5049355;28;20041;-75
2022/10/29 03:02:07;;;;;;;9.75;5.95;;;12.50;99.90;;;;;;5049741;28;20048;-75
2022/10/29 03:04:33;;;;;;;15.80;6.05;;;12.30;99.90;;;;;;5049610;28;20037;-75
2022/10/29 03:07:00;;;;;;;19.20;6.15;;;12.30;99.90;;;;;;5031407;28;20049;-75
2022/10/29 03:09:26;;;;;;;9.15;5.72;;;12.80;99.90;;;;;;5049602;28;20045;-75
2022/10/29 03:11:51;;;;;;;35.47;7.00;;;12.30;99.90;;;;;;5049767;28;20041;-75
2022/10/29 03:14:17;;;;;;;7.97;4.70;;;12.30;99.90;;;;;;5051194;28;20037;-75
2022/10/29 03:16:42;;;;;;;52.22;7.20;;;12.30;99.90;;;;;;5053554;28;20052;-75
2022/10/29 03:19:08;;;;;;;23.85;6.40;;;12.30;99.90;;;;;;5053686;28;20120;-74
2022/10/29 03:21:34;;;;;;;12.10;6.43;;;12.30;99.90;;;;;;5053616;28;20070;-75
2022/10/29 03:23:59;;;;;;;15.77;5.97;;;12.30;99.90;;;;;;5053580;28;20045;-75
2022/10/29 03:26:25;;;;;;;7.97;5.72;;;12.30;99.90;;;;;;5053637;28;20172;-75
2022/10/29 03:28:50;;;;;;;8.98;6.05;;;12.30;99.90;;;;;;5053270;28;20045;-74
2022/10/29 03:31:16;;;;;;;11.60;5.70;;;12.30;99.90;;;;;;5052881;28;20506;-74
2022/10/29 03:33:42;;;;;;;16.38;5.70;;;12.30;99.90;;;;;;5053516;28;20043;-74
2022/10/29 03:36:07;;;;;;;30.00;6.10;;;12.30;99.90;;;;;;5035581;28;20103;-75
2022/10/29 03:38:33;;;;;;;11.10;6.47;;;12.30;99.90;;;;;;5023023;28;20041;-74
2022/10/29 03:40:59;;;;;;;21.77;6.15;;;12.30;99.90;;;;;;5053168;28;20052;-74
2022/10/29 03:43:25;;;;;;;25.10;6.40;;;12.30;99.90;;;;;;5035409;28;20053;-74
2022/10/29 03:45:52;;;;;;;11.90;5.80;;;12.30;99.90;;;;;;5034481;28;20136;-75
2022/10/29 03:48:18;;;;;;;27.20;6.43;;;12.40;99.90;;;;;;5052822;28;20438;-74
2022/10/29 03:50:44;;;;;;;21.45;6.32;;;12.40;99.90;;;;;;5034986;28;20049;-75
2022/10/29 03:53:10;;;;;;;14.52;5.70;;;12.40;99.90;;;;;;5034604;28;20690;-73
2022/10/29 03:55:36;;;;;;;12.23;6.28;;;12.30;99.90;;;;;;5033845;28;20065;-75
2022/10/29 03:58:01;;;;;;;47.20;6.35;;;12.40;99.90;;;;;;5034702;28;20052;-75
2022/10/29 04:00:27;;;;;;;20.38;6.40;;;12.40;99.90;;;;;;5052296;28;20432;-75
2022/10/29 04:02:53;;;;;;;7.95;5.47;;;12.30;99.90;;;;;;5052680;28;20411;-75
2022/10/29 04:05:18;;;;;;;28.98;6.70;;;12.50;99.90;;;;;;5052538;28;20049;-75
2022/10/29 04:07:44;;;;;;;12.70;6.40;;;12.40;99.90;;;;;;5052334;28;20361;-76
2022/10/29 04:10:10;;;;;;;23.58;6.82;;;12.40;99.90;;;;;;5052719;28;20049;-75
2022/10/29 04:12:36;;;;;;;18.38;7.00;;;12.40;99.90;;;;;;5052103;28;20037;-75
2022/10/29 04:15:05;;;;;;;17.85;7.05;;;12.40;99.90;;;;;;5051400;28;20045;-75
2022/10/29 04:17:30;;;;;;;13.57;6.53;;;12.40;99.90;;;;;;5033406;28;20045;-75
2022/10/29 04:19:56;;;;;;;24.10;8.18;;;12.40;99.90;;;;;;5034292;28;20052;-75
2022/10/29 04:22:21;;;;;;;17.13;6.90;;;12.40;99.90;;;;;;5033514;28;20083;-75
2022/10/29 04:24:47;;;;;;;21.08;7.32;;;12.40;99.90;;;;;;5051255;28;20037;-76
2022/10/29 04:27:13;;;;;;;36.38;8.02;;;12.40;99.90;;;;;;5051444;28;20044;-75
2022/10/29 04:29:38;;;;;;;32.17;8.13;;;12.40;99.90;;;;;;5034100;28;20081;-75
2022/10/29 04:32:04;;;;;;;14.85;7.22;;;12.60;99.90;;;;;;5033273;28;20056;-75
2022/10/29 04:34:29;;;;;;;17.42;6.65;;;12.50;99.90;;;;;;5033481;28;20056;-76
2022/10/29 04:36:55;;;;;;;13.02;6.88;;;12.40;99.90;;;;;;5051426;28;20057;-76
2022/10/29 04:39:20;;;;;;;16.42;6.97;;;12.40;99.90;;;;;;5051643;28;20107;-76
2022/10/29 04:41:48;;;;;;;19.55;7.25;;;12.40;99.90;;;;;;5051990;28;20099;-76
2022/10/29 04:44:14;;;;;;;27.10;7.10;;;12.40;99.90;;;;;;5033804;28;20465;-76
2022/10/29 04:46:39;;;;;;;28.42;7.72;;;12.40;99.90;;;;;;5051363;28;20088;-76
2022/10/29 04:49:05;;;;;;;32.72;8.50;;;12.50;99.90;;;;;;5052211;28;20051;-76
2022/10/29 04:51:30;;;;;;;22.33;9.32;;;12.50;99.90;;;;;;5051623;28;20399;-76
2022/10/29 04:53:56;;;;;;;36.85;8.52;;;12.50;99.90;;;;;;5051579;28;20045;-77
2022/10/29 04:56:22;;;;;;;16.63;7.15;;;12.50;99.90;;;;;;5033729;28;20061;-76
2022/10/29 04:58:51;;;;;;;18.50;9.00;;;12.50;99.90;;;;;;5051072;28;20131;-76
2022/10/29 05:01:17;;;;;;;24.98;8.68;;;12.50;99.90;;;;;;5016726;28;20106;-76
2022/10/29 05:03:42;;;;;;;46.80;8.35;;;12.50;99.90;;;;;;5051500;28;20041;-76
2022/10/29 05:06:08;;;;;;;40.58;8.30;;;12.60;99.90;;;;;;5033252;28;20055;-76
2022/10/29 05:08:34;;;;;;;14.73;7.38;;;12.50;99.90;;;;;;5051294;28;20045;-76
2022/10/29 05:11:06;;;;;;;19.88;8.98;;;12.50;99.90;;;;;;5051464;28;20052;-76
2022/10/29 05:13:32;;;;;;;18.27;7.85;;;12.50;99.90;;;;;;5033126;28;20512;-75
2022/10/29 05:15:58;;;;;;;21.92;8.20;;;12.50;99.90;;;;;;5033085;28;20048;-77
2022/10/29 05:18:23;;;;;;;16.33;8.32;;;12.60;99.90;;;;;;5016162;28;20385;-76
2022/10/29 05:20:58;;;;;;;30.10;8.32;;;12.60;99.90;;;;;;5050999;28;20040;-76
2022/10/29 05:23:24;;;;;;;13.55;7.30;;;12.70;99.90;;;;;;5032808;28;20053;-77
2022/10/29 05:25:50;;;;;;;13.60;7.50;;;12.60;99.90;;;;;;5033418;28;20098;-76
2022/10/29 05:28:19;;;;;;;23.80;7.57;;;12.70;99.90;;;;;;5051002;28;20122;-77
2022/10/29 05:30:47;;;;;;;16.90;7.38;;;12.60;99.90;;;;;;5050773;28;20044;-76
2022/10/29 05:33:18;;;;;;;19.15;7.22;;;12.60;99.90;;;;;;5050451;28;20488;-77
2022/10/29 05:35:44;;;;;;;20.92;7.43;;;12.90;99.90;;;;;;5050983;28;20060;-76
2022/10/29 05:38:11;;;;;;;12.65;6.43;;;12.70;99.90;;;;;;5049546;28;20052;-77
2022/10/29 05:40:37;;;;;;;18.23;6.35;;;12.60;99.90;;;;;;5050774;28;20044;-76
2022/10/29 05:43:02;;;;;;;18.10;7.13;;;12.70;99.90;;;;;;5050638;28;20496;-76
2022/10/29 05:45:28;;;;;;;15.27;6.00;;;12.70;99.90;;;;;;5050731;28;20029;-76
2022/10/29 05:47:58;;;;;;;23.55;6.50;;;12.70;99.90;;;;;;5032569;28;20408;-79
2022/10/29 05:50:25;;;;;;;16.75;6.70;;;12.70;99.90;;;;;;5050559;28;20048;-78
2022/10/29 05:52:58;;;;;;;35.22;8.15;;;12.70;99.90;;;;;;5033069;28;20542;-76
2022/10/29 05:55:24;;;;;;;15.98;7.43;;;12.70;99.90;;;;;;5049587;28;20045;-76
2022/10/29 05:57:57;;;;;;;14.95;6.68;;;12.70;99.90;;;;;;5032197;28;20063;-78
2022/10/29 06:00:25;;;;;;;18.58;8.00;;;12.70;99.90;;;;;;5032823;28;20506;-78
2022/10/29 06:02:50;;;;;;;20.20;7.18;;;12.70;99.90;;;;;;5049886;28;20037;-78
2022/10/29 06:05:16;;;;;;;24.42;7.20;;;12.70;99.90;;;;;;5050348;28;20052;-79
2022/10/29 06:07:42;;;;;;;17.83;6.78;;;12.70;99.90;;;;;;5032011;28;20041;-79
2022/10/29 06:10:07;;;;;;;21.45;6.22;;;12.70;99.90;;;;;;5050124;28;20110;-78
2022/10/29 06:12:33;;;;;;;68.72;7.05;;;12.70;99.90;;;;;;5050141;28;20504;-79
2022/10/29 06:14:59;;;;;;;19.83;5.68;;;12.70;99.90;;;;;;5031705;28;20052;-81
2022/10/29 06:17:25;;;;;;;18.88;5.32;;;12.70;99.90;;;;;;5031956;28;20116;-81
2022/10/29 06:19:51;;;;;;;34.47;6.00;;;12.70;99.90;;;;;;5049929;28;20514;-79
2022/10/29 06:22:16;;;;;;;76.18;6.75;;;12.70;99.90;;;;;;5049492;28;20040;-79
2022/10/29 06:24:42;;;;;;;33.72;6.00;;;12.70;99.90;;;;;;5049713;28;20431;-79
2022/10/29 06:27:08;;;;;;;38.13;5.38;;;12.70;99.90;;;;;;5049901;28;20098;-79
2022/10/29 06:29:33;;;;;;;17.85;5.45;;;12.70;99.90;;;;;;5049744;28;20127;-80
2022/10/29 06:31:59;;;;;;;19.95;5.70;;;12.90;99.90;;;;;;5049871;28;20119;-79
2022/10/29 06:34:24;;;;;;;20.67;6.15;;;12.80;99.90;;;;;;5049434;28;20063;-79
2022/10/29 06:36:50;;;;;;;20.80;6.05;;;12.80;99.90;;;;;;5031478;28;20052;-80
2022/10/29 06:39:16;;;;;;;15.60;5.97;;;12.80;99.90;;;;;;5049802;28;20376;-79
2022/10/29 06:41:41;;;;;;;71.30;8.65;;;12.80;99.90;;;;;;5032176;28;20049;-79
2022/10/29 06:44:07;;;;;;;28.80;6.88;;;12.80;99.90;;;;;;5049852;28;20450;-80
2022/10/29 06:46:33;;;;;;;19.52;7.55;;;12.80;99.90;;;;;;5049594;28;20530;-79
2022/10/29 06:49:01;;;;;;;28.58;6.68;;;12.80;99.90;;;;;;5031471;28;20052;-80
2022/10/29 06:51:27;;;;;;;18.88;7.20;;;12.80;99.90;;;;;;5049114;28;20495;-78
2022/10/29 06:53:53;;;;;;;26.02;7.53;;;12.80;99.90;;;;;;5049134;28;20591;-78
2022/10/29 06:56:20;;;;;;;23.40;8.27;;;12.80;99.90;;;;;;5049587;28;20103;-79
2022/10/29 06:58:46;;;;;;;33.30;8.70;;;12.90;99.90;;;;;;5031731;28;20055;-77
2022/10/29 07:01:12;;;;;;;38.08;8.45;;;12.90;99.90;;;;;;5048902;28;20064;-79
2022/10/29 07:03:37;;;;;;;23.75;7.53;;;12.90;99.90;;;;;;5049858;28;20479;-78
2022/10/29 07:06:03;;;;;;;24.98;6.93;;;12.90;99.90;;;;;;5049755;28;20508;-79
2022/10/29 07:08:29;;;;;;;31.75;7.72;;;12.90;99.90;;;;;;5049729;28;20041;-78
2022/10/29 07:10:55;;;;;;;21.52;7.03;;;13.00;99.90;;;;;;5049386;28;20454;-79
2022/10/29 07:13:21;;;;;;;22.92;7.55;;;13.00;99.90;;;;;;5031401;28;20124;-78
2022/10/29 07:15:47;;;;;;;28.52;8.10;;;12.90;99.90;;;;;;5049318;28;20589;-79
2022/10/29 07:18:13;;;;;;;44.72;8.40;;;13.00;99.90;;;;;;5049527;28;20480;-79
2022/10/29 07:20:42;;;;;;;31.02;8.50;;;13.00;99.90;;;;;;5049329;28;20462;-79
2022/10/29 07:23:08;;;;;;;31.95;8.73;;;13.00;99.90;;;;;;5049525;28;20041;-77
2022/10/29 07:25:35;;;;;;;27.77;7.47;;;13.70;99.90;;;;;;5049629;28;20044;-79
2022/10/29 07:28:09;;;;;;;26.77;8.70;;;13.10;99.90;;;;;;5049678;28;20511;-78
2022/10/29 07:30:35;;;;;;;34.67;8.30;;;13.10;99.90;;;;;;5049245;28;20041;-78
2022/10/29 07:33:01;;;;;;;33.20;8.82;;;13.60;99.90;;;;;;5049685;28;20056;-80
2022/10/29 07:35:27;;;;;;;42.13;9.80;;;13.20;99.90;;;;;;5030850;28;20075;-79
2022/10/29 07:37:58;;;;;;;30.75;9.30;;;13.40;99.90;;;;;;5049371;28;20044;-79
2022/10/29 07:40:24;;;;;;;37.58;10.40;;;13.30;99.90;;;;;;5049201;28;20407;-80
2022/10/29 07:42:52;;;;;;;33.58;10.90;;;13.20;99.90;;;;;;5048982;28;20128;-79
2022/10/29 07:45:18;;;;;;;55.20;12.32;;;13.60;99.90;;;;;;5049084;28;20044;-79
2022/10/29 07:47:44;;;;;;;55.65;13.70;;;13.30;99.90;;;;;;5049031;28;20041;-81
2022/10/29 07:50:10;;;;;;;43.10;15.13;;;13.60;99.90;;;;;;5048904;28;20045;-80
2022/10/29 07:53:04;;;;;;;39.22;14.55;;;13.30;99.90;;;;;;5042698;28;20040;-74
2022/10/29 07:55:30;;;;;;;58.22;17.80;;;13.30;99.90;;;;;;5048286;28;20064;-80
2022/10/29 07:57:59;;;;;;;54.05;18.38;;;13.30;99.90;;;;;;5049021;28;20053;-78
2022/10/29 08:00:26;;;;;;;41.95;17.92;;;13.40;99.90;;;;;;5048478;28;20377;-78
2022/10/29 08:02:53;;;;;;;37.35;17.20;;;13.40;99.90;;;;;;5052210;28;20049;-77
2022/10/29 08:05:20;;;;;;;50.85;18.30;;;13.40;99.90;;;;;;5050393;28;20041;-80
2022/10/29 08:07:46;;;;;;;59.58;20.05;;;13.40;99.90;;;;;;5048852;28;20111;-77
2022/10/29 08:10:11;;;;;;;48.50;19.48;;;13.70;99.90;;;;;;5051933;28;20049;-77
2022/10/29 08:12:37;;;;;;;48.90;18.42;;;13.40;99.90;;;;;;5053432;28;20056;-77
2022/10/29 08:15:04;;;;;;;44.30;17.95;;;13.50;99.90;;;;;;5051686;28;20091;-75
2022/10/29 08:17:33;;;;;;;44.22;18.75;;;13.50;99.90;;;;;;5051451;28;20045;-76
2022/10/29 08:19:59;;;;;;;47.33;18.90;;;13.50;99.90;;;;;;5051198;28;20563;-76
2022/10/29 08:22:24;;;;;;;44.63;19.25;;;13.70;99.90;;;;;;5014159;28;20140;-77
2022/10/29 08:24:50;;;;;;;44.30;19.38;;;13.70;99.90;;;;;;5033586;28;20049;-78
2022/10/29 08:27:16;;;;;;;38.03;18.35;;;13.80;99.90;;;;;;5033317;28;20057;-78
2022/10/29 08:29:41;;;;;;;38.80;19.98;;;13.60;99.90;;;;;;5052191;28;20119;-78
2022/10/29 08:32:07;;;;;;;52.65;21.98;;;13.70;99.90;;;;;;5033740;28;20044;-77
2022/10/29 08:34:32;;;;;;;58.42;22.63;;;14.00;99.90;;;;;;5051934;28;20049;-77
2022/10/29 08:36:58;;;;;;;49.33;21.58;;;13.70;99.90;;;;;;5051622;28;20141;-78
2022/10/29 08:39:24;;;;;;;54.20;22.92;;;14.00;99.90;;;;;;5033609;28;20055;-77
2022/10/29 08:42:16;;;;;;;46.80;23.58;;;13.80;99.90;;;;;;5051771;28;20052;-77
2022/10/29 08:44:50;;;;;;;55.33;22.98;;;13.90;99.90;;;;;;5033939;28;20081;-77
2022/10/29 08:47:19;;;;;;;59.80;25.10;;;13.90;99.90;;;;;;5034366;28;20053;-79
2022/10/29 08:50:19;;;;;;;58.60;23.67;;;14.10;99.90;;;;;;5051898;28;20045;-77
2022/10/29 08:52:46;;;;;;;54.38;24.55;;;13.90;99.90;;;;;;5051448;28;20049;-76
2022/10/29 08:55:40;;;;;;;51.47;23.83;;;14.10;99.90;;;;;;5033099;28;20057;-76
2022/10/29 08:58:34;;;;;;;51.25;23.30;;;14.00;99.90;;;;;;5046482;28;20057;-78
2022/10/29 09:01:00;;;;;;;45.80;23.85;;;14.00;99.90;;;;;;4970038;28;20086;-76
2022/10/29 09:03:28;;;;;;;47.60;22.80;;;14.00;99.90;;;;;;4970075;28;20140;-76
2022/10/29 09:06:08;;;;;;;52.50;24.85;;;14.10;99.90;;;;;;4969866;28;20066;-77
2022/10/29 09:08:53;;;;;;;43.90;22.05;;;14.10;99.90;;;;;;4970092;28;20070;-78
2022/10/29 09:11:31;;;;;;;46.17;22.15;;;14.10;99.90;;;;;;4968983;28;20046;-77
2022/10/29 09:13:59;;;;;;;44.42;22.00;;;14.20;99.90;;;;;;4969290;28;20120;-77
2022/10/29 09:16:58;;;;;;;41.10;21.48;;;14.20;99.90;;;;;;4969978;28;20117;-77
2022/10/29 09:20:02;;;;;;;43.03;21.00;;;14.20;99.90;;;;;;4970063;28;20474;-79
2022/10/29 09:22:41;;;;;;;41.33;21.20;;;14.20;99.90;;;;;;4969949;28;20138;-78
2022/10/29 09:25:27;;;;;;;37.42;20.02;;;14.30;99.90;;;;;;4970154;28;20103;-77
2022/10/29 09:28:12;;;;;;;39.75;21.95;;;14.60;99.90;;;;;;4953162;28;20641;-76
2022/10/29 09:31:12;;;;;;;38.72;20.17;;;14.40;99.90;;;;;;4969829;28;20063;-77
2022/10/29 09:33:40;;;;;;;42.25;21.05;;;14.50;99.90;;;;;;4953634;28;20055;-77
2022/10/29 09:36:14;;;;;;;41.08;20.38;;;14.50;99.90;;;;;;4953338;28;20051;-77
2022/10/29 09:38:52;;;;;;;;;;;14.50;99.90;;;;;;5034783;28;20071;-76
2022/10/29 09:41:20;;;;;;;41.17;19.95;;;14.70;99.90;;;;;;5050640;28;19947;-76
2022/10/29 09:44:00;;;;;;;43.13;21.67;;;14.60;99.90;;;;;;5050725;28;20048;-77
2022/10/29 09:46:44;;;;;;;38.45;20.85;;;14.60;99.90;;;;;;5050652;28;20052;-77
2022/10/29 09:49:54;;;;;;;38.63;20.42;;;14.60;99.90;;;;;;5050353;28;20045;-76
2022/10/29 09:52:25;;;;;;;38.42;20.88;;;14.70;99.90;;;;;;5050393;28;20102;-76
2022/10/29 09:54:53;;;;;;;41.08;20.83;;;14.80;99.90;;;;;;5043266;28;20068;-77
2022/10/29 09:57:22;;;;;;;43.50;19.88;;;14.90;99.90;;;;;;5012883;28;20053;-76
2022/10/29 10:00:01;;;;;;;41.08;19.65;;;14.90;99.90;;;;;;5030675;28;20041;-76
2022/10/29 10:02:37;;;;;;;41.92;20.73;;;15.00;99.90;;;;;;5030720;28;20046;-76
2022/10/29 10:05:11;;;;;;;40.20;19.73;;;15.00;99.90;;;;;;5030693;28;20064;-76
2022/10/29 10:07:37;;;;;;;40.80;19.45;;;14.90;99.90;;;;;;5030299;28;20041;-76
2022/10/29 10:10:06;;;;;;;39.67;18.80;;;15.20;99.90;;;;;;5030198;28;20053;-75
2022/10/29 10:12:37;;;;;;;38.80;19.15;;;15.30;99.90;;;;;;5030436;28;20161;-76
2022/10/29 10:15:15;;;;;;;36.33;17.90;;;15.40;99.90;;;;;;5030243;28;20500;-76
2022/10/29 10:17:56;;;;;;;32.40;18.40;;;15.40;99.90;;;;;;5030210;28;20056;-76
2022/10/29 10:20:30;;;;;;;38.17;18.77;;;15.60;99.90;;;;;;5012196;28;20119;-77
2022/10/29 10:22:56;;;;;;;36.95;17.67;;;15.70;99.90;;;;;;5011466;28;20633;-77
2022/10/29 10:25:34;;;;;;;31.88;16.92;;;15.90;99.90;;;;;;5029853;28;20057;-76
2022/10/29 10:28:21;;;;;;;35.22;17.30;;;15.90;99.90;;;;;;5029934;28;20610;-76
2022/10/29 10:31:08;;;;;;;38.05;17.55;;;15.90;99.90;;;;;;5029970;28;20065;-78
2022/10/29 10:33:42;;;;;;;33.25;16.67;;;16.00;99.90;;;;;;5030258;28;20072;-78
2022/10/29 10:36:09;;;;;;;33.92;16.30;;;16.10;99.90;;;;;;5029775;28;20120;-77
2022/10/29 10:39:01;;;;;;;32.53;16.10;;;16.20;99.90;;;;;;5011828;28;20111;-80
2022/10/29 10:41:30;;;;;;;29.27;15.88;;;16.30;99.90;;;;;;5026005;28;20140;-79
2022/10/29 10:43:59;;;;;;;30.23;15.30;;;16.30;99.90;;;;;;5029782;28;20045;-77
2022/10/29 10:46:46;;;;;;;28.50;14.65;;;16.40;99.90;;;;;;5029967;28;20049;-77
2022/10/29 10:49:15;;;;;;;29.50;14.15;;;16.40;99.90;;;;;;5030008;28;20596;-78
2022/10/29 10:51:50;;;;;;;30.13;13.52;;;16.60;99.90;;;;;;5029576;28;20048;-77
2022/10/29 10:54:24;;;;;;;24.27;12.27;;;16.60;99.90;;;;;;5013646;28;20045;-78
2022/10/29 10:56:56;;;;;;;28.40;13.02;;;16.70;99.90;;;;;;5049704;28;20060;-78
2022/10/29 10:59:24;;;;;;;23.42;11.95;;;16.90;99.90;;;;;;5031984;28;20451;-78
2022/10/29 11:01:50;;;;;;;29.33;12.23;;;17.00;99.90;;;;;;5049673;28;20049;-78
2022/10/29 11:04:42;;;;;;;24.13;11.38;;;17.10;99.90;;;;;;5031413;28;20140;-78
2022/10/29 11:07:12;;;;;;;26.77;11.77;;;17.20;99.90;;;;;;5049024;28;20519;-77
2022/10/29 11:09:48;;;;;;;26.42;11.10;;;17.30;99.90;;;;;;5049294;28;20582;-77
2022/10/29 11:12:29;;;;;;;23.27;10.43;;;17.30;99.90;;;;;;5049561;28;20037;-78
2022/10/29 11:15:08;;;;;;;28.88;10.70;;;17.40;99.90;;;;;;5031760;28;20053;-78
2022/10/29 11:18:00;;;;;;;22.92;10.20;;;17.50;99.90;;;;;;5049250;28;20060;-78
2022/10/29 11:20:31;;;;;;;20.58;9.95;;;17.60;99.90;;;;;;4967806;28;20835;-79
2022/10/29 11:23:15;;;;;;;20.55;10.45;;;17.70;99.90;;;;;;4967936;28;20059;-79
2022/10/29 11:25:48;;;;;;;25.13;10.27;;;17.80;99.90;;;;;;4968062;28;20106;-79
2022/10/29 11:28:22;;;;;;;23.47;9.60;;;17.90;99.90;;;;;;4968463;28;20051;-80
2022/10/29 11:31:01;;;;;;;23.48;10.15;;;18.00;99.90;;;;;;4968439;28;20058;-80
2022/10/29 11:33:45;;;;;;;18.77;8.48;;;18.20;99.90;;;;;;4987692;28;20081;-79
2022/10/29 11:36:34;;;;;;;20.17;8.65;;;18.40;99.90;;;;;;4990563;28;20050;-79
2022/10/29 11:39:24;;;;;;;25.42;9.63;;;18.50;99.90;;;;;;4991001;28;20070;-80
2022/10/29 11:41:59;;;;;;;20.58;9.00;;;18.50;99.90;;;;;;4990995;28;20062;-79
2022/10/29 11:44:25;;;;;;;33.28;9.23;;;18.60;99.90;;;;;;4991413;28;20070;-78
2022/10/29 11:47:17;;;;;;;25.73;10.25;;;18.60;99.90;;;;;;4991252;28;20060;-79
2022/10/29 11:50:16;;;;;;;25.23;9.60;;;18.60;99.90;;;;;;4991203;28;20042;-80
2022/10/29 11:53:08;;;;;;;20.52;9.80;;;18.60;99.90;;;;;;4952133;29;20069;-79
2022/10/29 11:56:12;;;;;;;26.25;10.38;;;18.60;99.90;;;;;;4951878;28;20055;-80
2022/10/29 11:59:06;;;;;;;21.38;9.40;;;18.60;99.90;;;;;;4914075;29;20484;-78
2022/10/29 12:01:58;;;;;;;27.63;10.30;;;18.60;99.90;;;;;;4894741;29;20057;-80
2022/10/29 12:04:49;;;;;;;20.48;9.70;;;18.60;99.90;;;;;;4894988;29;20081;-79
2022/10/29 12:07:38;;;;;;;25.58;9.88;;;18.60;99.90;;;;;;4875869;29;20060;-75
2022/10/29 12:10:14;;;;;;;23.88;9.75;;;18.60;99.90;;;;;;4882026;29;20064;-76
2022/10/29 12:12:44;;;;;;;24.65;10.25;;;18.60;99.90;;;;;;4894978;29;20053;-80
2022/10/29 12:15:23;;;;;;;29.58;10.40;;;18.60;99.90;;;;;;4888888;29;20055;-78
2022/10/29 12:18:16;;;;;;;21.40;9.73;;;18.70;99.90;;;;;;4872603;29;20571;-80
2022/10/29 12:21:15;;;;;;;20.88;10.05;;;19.00;99.90;;;;;;4895010;29;20048;-78
2022/10/29 12:23:40;;;;;;;28.20;10.10;;;18.70;99.90;;;;;;4894823;29;20092;-79
2022/10/29 12:26:20;;;;;;;21.58;10.00;;;18.80;99.90;;;;;;4871478;29;20136;-80
2022/10/29 12:28:54;;;;;;;22.23;10.02;;;18.80;99.90;;;;;;4859820;29;20815;-79
2022/10/29 12:31:37;;;;;;;29.40;10.88;;;18.90;99.90;;;;;;4876304;29;20098;-80
2022/10/29 12:34:24;;;;;;;23.77;9.90;;;19.00;99.90;;;;;;4876235;29;20057;-81
2022/10/29 12:37:09;;;;;;;30.90;10.13;;;19.00;99.90;;;;;;4971082;28;20050;-80
2022/10/29 12:39:44;;;;;;;23.92;9.40;;;19.20;99.90;;;;;;5009975;28;20054;-80
2022/10/29 12:42:23;;;;;;;21.88;9.77;;;19.30;99.90;;;;;;5012782;28;20042;-80
2022/10/29 12:45:00;;;;;;;25.98;9.88;;;19.50;99.90;;;;;;5014356;28;20042;-78
2022/10/29 12:47:37;;;;;;;29.65;10.30;;;19.80;99.90;;;;;;5031102;28;20053;-80
2022/10/29 12:50:15;;;;;;;24.27;9.85;;;19.90;99.90;;;;;;5032426;28;20084;-80
2022/10/29 12:52:46;;;;;;;26.15;10.07;;;20.10;99.90;;;;;;5032117;28;20052;-79
2022/10/29 12:55:15;;;;;;;28.92;9.30;;;20.20;99.90;;;;;;5041587;28;20079;-78